sensor_id;sensor_type;location;lat;lon;timestamp;temperature;humidity
60287;DHT22;46141;52.382;5.270;2022-08-21T00:01:15;25.50;63.20
60287;DHT22;46141;52.382;5.270;2022-08-21T00:03:41;25.50;63.30
60287;DHT22;46141;52.382;5.270;2022-08-21T00:06:08;25.50;63.20
60287;DHT22;46141;52.382;5.270;2022-08-21T00:08:33;25.50;63.20
60287;DHT22;46141;52.382;5.270;2022-08-21T00:10:59;25.50;63.30
60287;DHT22;46141;52.382;5.270;2022-08-21T00:13:24;25.50;63.30
60287;DHT22;46141;52.382;5.270;2022-08-21T00:15:50;25.40;63.30
60287;DHT22;46141;52.382;5.270;2022-08-21T00:18:16;25.50;63.40
60287;DHT22;46141;52.382;5.270;2022-08-21T00:20:44;25.50;63.40
60287;DHT22;46141;52.382;5.270;2022-08-21T00:23:10;25.50;63.40
60287;DHT22;46141;52.382;5.270;2022-08-21T00:25:37;25.50;63.40
60287;DHT22;46141;52.382;5.270;2022-08-21T00:28:04;25.40;63.40
60287;DHT22;46141;52.382;5.270;2022-08-21T00:30:31;25.40;63.40
60287;DHT22;46141;52.382;5.270;2022-08-21T00:32:57;25.40;63.30
60287;DHT22;46141;52.382;5.270;2022-08-21T00:35:28;25.40;63.40
60287;DHT22;46141;52.382;5.270;2022-08-21T00:37:54;25.40;63.30
60287;DHT22;46141;52.382;5.270;2022-08-21T00:40:26;25.40;63.30
60287;DHT22;46141;52.382;5.270;2022-08-21T00:42:51;25.40;63.40
60287;DHT22;46141;52.382;5.270;2022-08-21T00:45:17;25.40;63.50
60287;DHT22;46141;52.382;5.270;2022-08-21T00:47:42;25.40;63.40
60287;DHT22;46141;52.382;5.270;2022-08-21T00:50:10;25.40;63.40
60287;DHT22;46141;52.382;5.270;2022-08-21T00:52:37;25.40;63.40
60287;DHT22;46141;52.382;5.270;2022-08-21T00:55:06;25.40;63.40
60287;DHT22;46141;52.382;5.270;2022-08-21T00:57:54;25.30;63.30
60287;DHT22;46141;52.382;5.270;2022-08-21T01:00:28;25.40;63.60
60287;DHT22;46141;52.382;5.270;2022-08-21T01:02:57;25.40;63.50
60287;DHT22;46141;52.382;5.270;2022-08-21T01:05:23;25.40;63.40
60287;DHT22;46141;52.382;5.270;2022-08-21T01:07:49;25.40;63.40
60287;DHT22;46141;52.382;5.270;2022-08-21T01:10:15;25.40;63.40
60287;DHT22;46141;52.382;5.270;2022-08-21T01:12:41;25.40;63.40
60287;DHT22;46141;52.382;5.270;2022-08-21T01:15:08;25.40;63.40
60287;DHT22;46141;52.382;5.270;2022-08-21T01:17:35;25.30;63.50
60287;DHT22;46141;52.382;5.270;2022-08-21T01:20:05;25.30;63.40
60287;DHT22;46141;52.382;5.270;2022-08-21T01:22:31;25.30;63.40
60287;DHT22;46141;52.382;5.270;2022-08-21T01:24:56;25.40;63.60
60287;DHT22;46141;52.382;5.270;2022-08-21T01:27:22;25.30;63.40
60287;DHT22;46141;52.382;5.270;2022-08-21T01:29:56;25.30;63.40
60287;DHT22;46141;52.382;5.270;2022-08-21T01:32:22;25.40;63.40
60287;DHT22;46141;52.382;5.270;2022-08-21T01:34:50;25.40;63.50
60287;DHT22;46141;52.382;5.270;2022-08-21T01:37:18;25.30;63.40
60287;DHT22;46141;52.382;5.270;2022-08-21T01:39:44;25.30;63.40
60287;DHT22;46141;52.382;5.270;2022-08-21T01:42:10;25.30;63.40
60287;DHT22;46141;52.382;5.270;2022-08-21T01:44:36;25.30;63.40
60287;DHT22;46141;52.382;5.270;2022-08-21T01:47:05;25.30;63.40
60287;DHT22;46141;52.382;5.270;2022-08-21T01:49:31;25.30;63.40
60287;DHT22;46141;52.382;5.270;2022-08-21T01:51:57;25.30;63.40
60287;DHT22;46141;52.382;5.270;2022-08-21T01:54:23;25.30;63.40
60287;DHT22;46141;52.382;5.270;2022-08-21T01:56:51;25.30;63.40
60287;DHT22;46141;52.382;5.270;2022-08-21T01:59:17;25.30;63.50
60287;DHT22;46141;52.382;5.270;2022-08-21T02:01:43;25.30;63.60
60287;DHT22;46141;52.382;5.270;2022-08-21T02:04:10;25.30;63.50
60287;DHT22;46141;52.382;5.270;2022-08-21T02:06:36;25.30;64.10
60287;DHT22;46141;52.382;5.270;2022-08-21T02:09:04;25.30;63.60
60287;DHT22;46141;52.382;5.270;2022-08-21T02:11:31;25.20;63.40
60287;DHT22;46141;52.382;5.270;2022-08-21T02:13:57;25.20;63.50
60287;DHT22;46141;52.382;5.270;2022-08-21T02:16:22;25.20;63.50
60287;DHT22;46141;52.382;5.270;2022-08-21T02:18:48;25.20;63.50
60287;DHT22;46141;52.382;5.270;2022-08-21T02:21:14;25.20;63.50
60287;DHT22;46141;52.382;5.270;2022-08-21T02:23:39;25.20;63.50
60287;DHT22;46141;52.382;5.270;2022-08-21T02:26:08;25.20;63.50
60287;DHT22;46141;52.382;5.270;2022-08-21T02:28:35;25.20;63.60
60287;DHT22;46141;52.382;5.270;2022-08-21T02:31:01;25.10;63.40
60287;DHT22;46141;52.382;5.270;2022-08-21T02:33:28;25.10;63.50
60287;DHT22;46141;52.382;5.270;2022-08-21T02:35:55;25.10;63.50
60287;DHT22;46141;52.382;5.270;2022-08-21T02:38:26;25.10;63.50
60287;DHT22;46141;52.382;5.270;2022-08-21T02:40:53;25.10;63.50
60287;DHT22;46141;52.382;5.270;2022-08-21T02:43:22;25.10;63.50
60287;DHT22;46141;52.382;5.270;2022-08-21T02:45:48;25.10;63.50
60287;DHT22;46141;52.382;5.270;2022-08-21T02:48:18;25.10;63.50
60287;DHT22;46141;52.382;5.270;2022-08-21T02:50:48;25.10;63.50
60287;DHT22;46141;52.382;5.270;2022-08-21T02:53:15;25.00;63.50
60287;DHT22;46141;52.382;5.270;2022-08-21T02:55:41;25.10;63.60
60287;DHT22;46141;52.382;5.270;2022-08-21T02:58:07;25.00;63.50
60287;DHT22;46141;52.382;5.270;2022-08-21T03:00:35;25.00;63.50
60287;DHT22;46141;52.382;5.270;2022-08-21T03:03:01;25.10;63.60
60287;DHT22;46141;52.382;5.270;2022-08-21T03:05:29;25.00;63.60
60287;DHT22;46141;52.382;5.270;2022-08-21T03:07:55;25.00;63.50
60287;DHT22;46141;52.382;5.270;2022-08-21T03:10:22;25.00;63.60
60287;DHT22;46141;52.382;5.270;2022-08-21T03:12:48;25.00;63.60
60287;DHT22;46141;52.382;5.270;2022-08-21T03:15:17;25.00;63.60
60287;DHT22;46141;52.382;5.270;2022-08-21T03:17:43;25.00;63.60
60287;DHT22;46141;52.382;5.270;2022-08-21T03:20:10;25.00;63.60
60287;DHT22;46141;52.382;5.270;2022-08-21T03:22:36;25.00;63.60
60287;DHT22;46141;52.382;5.270;2022-08-21T03:25:03;24.90;63.60
60287;DHT22;46141;52.382;5.270;2022-08-21T03:27:29;24.90;63.60
60287;DHT22;46141;52.382;5.270;2022-08-21T03:29:54;24.90;63.60
60287;DHT22;46141;52.382;5.270;2022-08-21T03:32:20;24.90;63.60
60287;DHT22;46141;52.382;5.270;2022-08-21T03:34:47;24.90;63.70
60287;DHT22;46141;52.382;5.270;2022-08-21T03:37:15;24.90;63.60
60287;DHT22;46141;52.382;5.270;2022-08-21T03:39:41;24.90;63.70
60287;DHT22;46141;52.382;5.270;2022-08-21T03:42:07;24.90;63.60
60287;DHT22;46141;52.382;5.270;2022-08-21T03:44:33;24.80;63.60
60287;DHT22;46141;52.382;5.270;2022-08-21T03:46:58;24.90;63.80
60287;DHT22;46141;52.382;5.270;2022-08-21T03:49:25;24.90;63.80
60287;DHT22;46141;52.382;5.270;2022-08-21T03:51:51;24.80;63.70
60287;DHT22;46141;52.382;5.270;2022-08-21T03:54:17;24.80;63.80
60287;DHT22;46141;52.382;5.270;2022-08-21T03:56:43;24.80;63.70
60287;DHT22;46141;52.382;5.270;2022-08-21T03:59:08;24.80;63.80
60287;DHT22;46141;52.382;5.270;2022-08-21T04:01:34;24.80;63.80
60287;DHT22;46141;52.382;5.270;2022-08-21T04:04:00;24.80;63.80
60287;DHT22;46141;52.382;5.270;2022-08-21T04:06:27;24.80;63.70
60287;DHT22;46141;52.382;5.270;2022-08-21T04:08:53;24.80;63.70
60287;DHT22;46141;52.382;5.270;2022-08-21T04:11:18;24.80;63.80
60287;DHT22;46141;52.382;5.270;2022-08-21T04:13:45;24.80;63.80
60287;DHT22;46141;52.382;5.270;2022-08-21T04:16:12;24.70;63.80
60287;DHT22;46141;52.382;5.270;2022-08-21T04:18:38;24.80;63.80
60287;DHT22;46141;52.382;5.270;2022-08-21T04:21:06;24.70;63.80
60287;DHT22;46141;52.382;5.270;2022-08-21T04:23:32;24.70;63.90
60287;DHT22;46141;52.382;5.270;2022-08-21T04:25:58;24.70;63.90
60287;DHT22;46141;52.382;5.270;2022-08-21T04:28:26;24.70;63.80
60287;DHT22;46141;52.382;5.270;2022-08-21T04:30:52;24.70;63.90
60287;DHT22;46141;52.382;5.270;2022-08-21T04:33:19;24.70;63.90
60287;DHT22;46141;52.382;5.270;2022-08-21T04:35:45;24.70;63.90
60287;DHT22;46141;52.382;5.270;2022-08-21T04:38:10;24.70;64.00
60287;DHT22;46141;52.382;5.270;2022-08-21T04:40:36;24.70;63.90
60287;DHT22;46141;52.382;5.270;2022-08-21T04:43:04;24.60;63.90
60287;DHT22;46141;52.382;5.270;2022-08-21T04:45:36;24.70;63.90
60287;DHT22;46141;52.382;5.270;2022-08-21T04:48:05;24.70;64.00
60287;DHT22;46141;52.382;5.270;2022-08-21T04:50:47;24.60;64.00
60287;DHT22;46141;52.382;5.270;2022-08-21T04:53:26;24.60;64.00
60287;DHT22;46141;52.382;5.270;2022-08-21T04:55:54;24.60;64.20
60287;DHT22;46141;52.382;5.270;2022-08-21T04:58:24;24.60;64.00
60287;DHT22;46141;52.382;5.270;2022-08-21T05:00:54;24.60;64.00
60287;DHT22;46141;52.382;5.270;2022-08-21T05:03:20;24.60;64.00
60287;DHT22;46141;52.382;5.270;2022-08-21T05:05:46;24.60;64.10
60287;DHT22;46141;52.382;5.270;2022-08-21T05:08:19;24.60;64.10
60287;DHT22;46141;52.382;5.270;2022-08-21T05:10:47;24.60;64.10
60287;DHT22;46141;52.382;5.270;2022-08-21T05:13:13;24.60;64.10
60287;DHT22;46141;52.382;5.270;2022-08-21T05:15:40;24.60;64.10
60287;DHT22;46141;52.382;5.270;2022-08-21T05:18:06;24.60;64.20
60287;DHT22;46141;52.382;5.270;2022-08-21T05:20:32;24.60;64.20
60287;DHT22;46141;52.382;5.270;2022-08-21T05:22:58;24.50;64.10
60287;DHT22;46141;52.382;5.270;2022-08-21T05:25:23;24.50;64.20
60287;DHT22;46141;52.382;5.270;2022-08-21T05:27:49;24.50;64.20
60287;DHT22;46141;52.382;5.270;2022-08-21T05:30:14;24.50;64.20
60287;DHT22;46141;52.382;5.270;2022-08-21T05:32:40;24.50;64.20
60287;DHT22;46141;52.382;5.270;2022-08-21T05:35:07;24.50;64.20
60287;DHT22;46141;52.382;5.270;2022-08-21T05:37:33;24.50;64.20
60287;DHT22;46141;52.382;5.270;2022-08-21T05:40:00;24.50;64.20
60287;DHT22;46141;52.382;5.270;2022-08-21T05:42:26;24.50;64.20
60287;DHT22;46141;52.382;5.270;2022-08-21T05:44:51;24.50;64.20
60287;DHT22;46141;52.382;5.270;2022-08-21T05:47:17;24.50;64.20
60287;DHT22;46141;52.382;5.270;2022-08-21T05:49:43;24.50;64.20
60287;DHT22;46141;52.382;5.270;2022-08-21T05:52:08;24.50;64.20
60287;DHT22;46141;52.382;5.270;2022-08-21T05:54:36;24.50;64.20
60287;DHT22;46141;52.382;5.270;2022-08-21T05:57:02;24.50;64.30
60287;DHT22;46141;52.382;5.270;2022-08-21T05:59:27;24.50;64.30
60287;DHT22;46141;52.382;5.270;2022-08-21T06:01:53;24.50;64.40
60287;DHT22;46141;52.382;5.270;2022-08-21T06:04:19;24.50;64.30
60287;DHT22;46141;52.382;5.270;2022-08-21T06:06:44;24.50;64.40
60287;DHT22;46141;52.382;5.270;2022-08-21T06:09:10;24.50;64.40
60287;DHT22;46141;52.382;5.270;2022-08-21T06:11:35;24.50;64.50
60287;DHT22;46141;52.382;5.270;2022-08-21T06:14:01;24.50;64.50
60287;DHT22;46141;52.382;5.270;2022-08-21T06:16:27;24.50;64.40
60287;DHT22;46141;52.382;5.270;2022-08-21T06:18:53;24.50;64.40
60287;DHT22;46141;52.382;5.270;2022-08-21T06:21:19;24.50;64.40
60287;DHT22;46141;52.382;5.270;2022-08-21T06:23:45;24.50;64.50
60287;DHT22;46141;52.382;5.270;2022-08-21T06:26:13;24.50;64.40
60287;DHT22;46141;52.382;5.270;2022-08-21T06:28:39;24.50;64.40
60287;DHT22;46141;52.382;5.270;2022-08-21T06:31:17;24.50;64.40
60287;DHT22;46141;52.382;5.270;2022-08-21T06:33:43;24.50;64.40
60287;DHT22;46141;52.382;5.270;2022-08-21T06:36:08;24.50;64.50
60287;DHT22;46141;52.382;5.270;2022-08-21T06:38:34;24.50;64.40
60287;DHT22;46141;52.382;5.270;2022-08-21T06:41:00;24.50;64.40
60287;DHT22;46141;52.382;5.270;2022-08-21T06:43:25;24.50;64.60
60287;DHT22;46141;52.382;5.270;2022-08-21T06:45:51;24.50;66.00
60287;DHT22;46141;52.382;5.270;2022-08-21T06:48:16;24.40;66.60
60287;DHT22;46141;52.382;5.270;2022-08-21T06:50:42;24.40;67.90
60287;DHT22;46141;52.382;5.270;2022-08-21T06:53:11;24.30;67.80
60287;DHT22;46141;52.382;5.270;2022-08-21T06:55:38;24.20;68.00
60287;DHT22;46141;52.382;5.270;2022-08-21T06:58:04;24.20;68.50
60287;DHT22;46141;52.382;5.270;2022-08-21T07:00:31;24.20;68.90
60287;DHT22;46141;52.382;5.270;2022-08-21T07:02:57;24.10;69.10
60287;DHT22;46141;52.382;5.270;2022-08-21T07:05:26;24.10;69.80
60287;DHT22;46141;52.382;5.270;2022-08-21T07:07:52;24.00;70.00
60287;DHT22;46141;52.382;5.270;2022-08-21T07:10:17;24.00;70.40
60287;DHT22;46141;52.382;5.270;2022-08-21T07:12:43;24.00;70.70
60287;DHT22;46141;52.382;5.270;2022-08-21T07:15:09;24.00;71.20
60287;DHT22;46141;52.382;5.270;2022-08-21T07:17:35;24.00;71.20
60287;DHT22;46141;52.382;5.270;2022-08-21T07:20:00;24.00;71.60
60287;DHT22;46141;52.382;5.270;2022-08-21T07:22:26;23.90;71.80
60287;DHT22;46141;52.382;5.270;2022-08-21T07:24:52;23.90;71.90
60287;DHT22;46141;52.382;5.270;2022-08-21T07:27:17;23.90;72.30
60287;DHT22;46141;52.382;5.270;2022-08-21T07:29:43;23.90;72.60
60287;DHT22;46141;52.382;5.270;2022-08-21T07:32:08;23.90;72.90
60287;DHT22;46141;52.382;5.270;2022-08-21T07:34:34;23.90;73.90
60287;DHT22;46141;52.382;5.270;2022-08-21T07:36:59;23.90;73.90
60287;DHT22;46141;52.382;5.270;2022-08-21T07:39:25;23.90;73.20
60287;DHT22;46141;52.382;5.270;2022-08-21T07:41:51;23.90;72.80
60287;DHT22;46141;52.382;5.270;2022-08-21T07:44:17;24.00;72.60
60287;DHT22;46141;52.382;5.270;2022-08-21T07:46:42;24.00;72.50
60287;DHT22;46141;52.382;5.270;2022-08-21T07:49:08;24.10;72.20
60287;DHT22;46141;52.382;5.270;2022-08-21T07:51:34;24.10;72.10
60287;DHT22;46141;52.382;5.270;2022-08-21T07:54:00;24.10;72.50
60287;DHT22;46141;52.382;5.270;2022-08-21T07:56:27;24.20;71.90
60287;DHT22;46141;52.382;5.270;2022-08-21T07:58:54;24.20;71.80
60287;DHT22;46141;52.382;5.270;2022-08-21T08:01:20;24.20;71.90
60287;DHT22;46141;52.382;5.270;2022-08-21T08:03:46;24.20;71.40
60287;DHT22;46141;52.382;5.270;2022-08-21T08:06:11;24.30;71.40
60287;DHT22;46141;52.382;5.270;2022-08-21T08:08:40;24.30;71.40
60287;DHT22;46141;52.382;5.270;2022-08-21T08:11:07;24.30;71.30
60287;DHT22;46141;52.382;5.270;2022-08-21T08:13:39;24.40;71.30
60287;DHT22;46141;52.382;5.270;2022-08-21T08:16:05;24.40;71.20
60287;DHT22;46141;52.382;5.270;2022-08-21T08:18:30;24.40;71.10
60287;DHT22;46141;52.382;5.270;2022-08-21T08:20:56;24.40;70.90
60287;DHT22;46141;52.382;5.270;2022-08-21T08:23:21;24.40;71.00
60287;DHT22;46141;52.382;5.270;2022-08-21T08:25:47;24.50;71.00
60287;DHT22;46141;52.382;5.270;2022-08-21T08:28:12;24.50;71.10
60287;DHT22;46141;52.382;5.270;2022-08-21T08:30:38;24.50;70.80
60287;DHT22;46141;52.382;5.270;2022-08-21T08:33:03;24.50;70.60
60287;DHT22;46141;52.382;5.270;2022-08-21T08:35:29;24.60;70.70
60287;DHT22;46141;52.382;5.270;2022-08-21T08:37:54;24.60;70.80
60287;DHT22;46141;52.382;5.270;2022-08-21T08:43:02;24.60;70.60
60287;DHT22;46141;52.382;5.270;2022-08-21T08:45:33;24.60;70.50
60287;DHT22;46141;52.382;5.270;2022-08-21T08:48:03;24.70;70.70
60287;DHT22;46141;52.382;5.270;2022-08-21T08:50:52;24.70;70.40
60287;DHT22;46141;52.382;5.270;2022-08-21T08:53:30;24.70;70.40
60287;DHT22;46141;52.382;5.270;2022-08-21T08:55:57;24.80;70.50
60287;DHT22;46141;52.382;5.270;2022-08-21T08:58:31;24.80;70.50
60287;DHT22;46141;52.382;5.270;2022-08-21T09:00:57;24.80;70.30
60287;DHT22;46141;52.382;5.270;2022-08-21T09:03:24;24.90;70.40
60287;DHT22;46141;52.382;5.270;2022-08-21T09:06:04;24.90;70.20
60287;DHT22;46141;52.382;5.270;2022-08-21T09:11:57;25.00;69.90
60287;DHT22;46141;52.382;5.270;2022-08-21T09:20:03;25.00;70.00
60287;DHT22;46141;52.382;5.270;2022-08-21T09:28:20;25.20;70.00
60287;DHT22;46141;52.382;5.270;2022-08-21T09:30:45;25.20;70.00
60287;DHT22;46141;52.382;5.270;2022-08-21T09:33:13;25.20;70.00
60287;DHT22;46141;52.382;5.270;2022-08-21T09:35:51;25.30;70.10
60287;DHT22;46141;52.382;5.270;2022-08-21T09:38:32;25.30;69.80
60287;DHT22;46141;52.382;5.270;2022-08-21T09:41:04;25.30;70.50
60287;DHT22;46141;52.382;5.270;2022-08-21T09:43:31;25.20;70.80
60287;DHT22;46141;52.382;5.270;2022-08-21T09:46:19;25.30;71.40
60287;DHT22;46141;52.382;5.270;2022-08-21T09:48:52;25.30;71.40
60287;DHT22;46141;52.382;5.270;2022-08-21T09:51:22;25.20;71.00
60287;DHT22;46141;52.382;5.270;2022-08-21T09:58:58;25.20;71.30
60287;DHT22;46141;52.382;5.270;2022-08-21T10:01:25;25.20;71.10
60287;DHT22;46141;52.382;5.270;2022-08-21T10:04:07;25.20;71.30
60287;DHT22;46141;52.382;5.270;2022-08-21T10:06:33;25.20;71.50
60287;DHT22;46141;52.382;5.270;2022-08-21T10:09:24;25.20;71.70
60287;DHT22;46141;52.382;5.270;2022-08-21T10:20:30;25.20;70.10
60287;DHT22;46141;52.382;5.270;2022-08-21T10:26:56;25.20;70.10
60287;DHT22;46141;52.382;5.270;2022-08-21T10:29:36;25.20;69.80
60287;DHT22;46141;52.382;5.270;2022-08-21T10:37:42;25.30;70.10
60287;DHT22;46141;52.382;5.270;2022-08-21T10:43:09;25.30;70.10
60287;DHT22;46141;52.382;5.270;2022-08-21T10:48:28;25.30;70.20
60287;DHT22;46141;52.382;5.270;2022-08-21T10:51:08;25.40;69.90
60287;DHT22;46141;52.382;5.270;2022-08-21T10:53:36;25.40;69.80
60287;DHT22;46141;52.382;5.270;2022-08-21T10:56:26;25.40;69.60
60287;DHT22;46141;52.382;5.270;2022-08-21T11:01:34;25.40;68.80
60287;DHT22;46141;52.382;5.270;2022-08-21T11:04:34;25.40;68.70
60287;DHT22;46141;52.382;5.270;2022-08-21T11:07:22;25.50;68.30
60287;DHT22;46141;52.382;5.270;2022-08-21T11:09:55;25.50;67.70
60287;DHT22;46141;52.382;5.270;2022-08-21T11:12:26;25.40;67.50
60287;DHT22;46141;52.382;5.270;2022-08-21T11:15:04;25.50;67.80
60287;DHT22;46141;52.382;5.270;2022-08-21T11:17:57;25.50;67.50
60287;DHT22;46141;52.382;5.270;2022-08-21T11:20:47;25.50;67.50
60287;DHT22;46141;52.382;5.270;2022-08-21T11:23:25;25.50;67.70
60287;DHT22;46141;52.382;5.270;2022-08-21T11:26:00;25.60;68.30
60287;DHT22;46141;52.382;5.270;2022-08-21T11:29:16;25.50;67.50
60287;DHT22;46141;52.382;5.270;2022-08-21T11:31:38;25.60;67.40
60287;DHT22;46141;52.382;5.270;2022-08-21T11:34:37;25.60;67.20
60287;DHT22;46141;52.382;5.270;2022-08-21T11:37:08;25.60;67.10
60287;DHT22;46141;52.382;5.270;2022-08-21T11:39:57;25.60;66.30
60287;DHT22;46141;52.382;5.270;2022-08-21T11:42:42;25.60;66.10
60287;DHT22;46141;52.382;5.270;2022-08-21T11:45:32;25.60;65.90
60287;DHT22;46141;52.382;5.270;2022-08-21T11:48:10;25.60;65.70
60287;DHT22;46141;52.382;5.270;2022-08-21T11:50:43;25.60;65.40
60287;DHT22;46141;52.382;5.270;2022-08-21T11:53:28;25.60;65.40
60287;DHT22;46141;52.382;5.270;2022-08-21T11:56:28;25.70;65.50
60287;DHT22;46141;52.382;5.270;2022-08-21T11:59:01;25.70;64.10
60287;DHT22;46141;52.382;5.270;2022-08-21T12:01:34;25.70;64.00
60287;DHT22;46141;52.382;5.270;2022-08-21T12:04:06;25.70;63.80
60287;DHT22;46141;52.382;5.270;2022-08-21T12:06:39;25.70;63.70
60287;DHT22;46141;52.382;5.270;2022-08-21T12:14:50;25.80;64.80
60287;DHT22;46141;52.382;5.270;2022-08-21T12:17:26;25.80;64.90
60287;DHT22;46141;52.382;5.270;2022-08-21T12:20:16;25.80;65.00
60287;DHT22;46141;52.382;5.270;2022-08-21T12:22:52;25.80;64.60
60287;DHT22;46141;52.382;5.270;2022-08-21T12:25:20;25.80;64.70
60287;DHT22;46141;52.382;5.270;2022-08-21T12:27:51;25.80;64.70
60287;DHT22;46141;52.382;5.270;2022-08-21T12:32:59;25.80;65.00
60287;DHT22;46141;52.382;5.270;2022-08-21T12:35:33;25.90;65.10
60287;DHT22;46141;52.382;5.270;2022-08-21T12:38:21;25.90;65.70
60287;DHT22;46141;52.382;5.270;2022-08-21T12:40:52;25.90;65.00
60287;DHT22;46141;52.382;5.270;2022-08-21T12:43:28;25.90;65.10
60287;DHT22;46141;52.382;5.270;2022-08-21T12:45:54;25.90;64.90
60287;DHT22;46141;52.382;5.270;2022-08-21T12:48:35;25.90;65.00
60287;DHT22;46141;52.382;5.270;2022-08-21T12:51:12;25.90;64.90
60287;DHT22;46141;52.382;5.270;2022-08-21T12:56:15;25.90;64.90
60287;DHT22;46141;52.382;5.270;2022-08-21T12:58:47;26.00;64.90
60287;DHT22;46141;52.382;5.270;2022-08-21T13:01:24;26.00;64.80
60287;DHT22;46141;52.382;5.270;2022-08-21T13:03:54;26.00;64.60
60287;DHT22;46141;52.382;5.270;2022-08-21T13:06:23;26.00;64.10
60287;DHT22;46141;52.382;5.270;2022-08-21T13:08:57;26.10;64.40
60287;DHT22;46141;52.382;5.270;2022-08-21T13:11:25;26.10;64.10
60287;DHT22;46141;52.382;5.270;2022-08-21T13:13:53;26.20;64.10
60287;DHT22;46141;52.382;5.270;2022-08-21T13:16:28;26.20;63.70
60287;DHT22;46141;52.382;5.270;2022-08-21T13:18:58;26.20;63.10
60287;DHT22;46141;52.382;5.270;2022-08-21T13:21:49;26.30;63.10
60287;DHT22;46141;52.382;5.270;2022-08-21T13:24:15;26.30;62.90
60287;DHT22;46141;52.382;5.270;2022-08-21T13:26:41;26.30;62.60
60287;DHT22;46141;52.382;5.270;2022-08-21T13:29:10;26.30;62.40
60287;DHT22;46141;52.382;5.270;2022-08-21T13:31:39;26.30;62.30
60287;DHT22;46141;52.382;5.270;2022-08-21T13:34:06;26.30;62.50
60287;DHT22;46141;52.382;5.270;2022-08-21T13:36:39;26.20;62.60
60287;DHT22;46141;52.382;5.270;2022-08-21T13:39:09;26.30;62.70
60287;DHT22;46141;52.382;5.270;2022-08-21T13:41:41;26.30;62.70
60287;DHT22;46141;52.382;5.270;2022-08-21T13:47:02;26.30;62.50
60287;DHT22;46141;52.382;5.270;2022-08-21T13:49:40;26.30;62.50
60287;DHT22;46141;52.382;5.270;2022-08-21T13:54:43;26.30;62.80
60287;DHT22;46141;52.382;5.270;2022-08-21T13:57:29;26.30;62.70
60287;DHT22;46141;52.382;5.270;2022-08-21T14:00:18;26.30;62.60
60287;DHT22;46141;52.382;5.270;2022-08-21T14:02:48;26.30;62.50
60287;DHT22;46141;52.382;5.270;2022-08-21T14:05:26;26.30;62.40
60287;DHT22;46141;52.382;5.270;2022-08-21T14:08:11;26.30;63.00
60287;DHT22;46141;52.382;5.270;2022-08-21T14:10:47;26.40;62.60
60287;DHT22;46141;52.382;5.270;2022-08-21T14:13:42;26.30;61.90
60287;DHT22;46141;52.382;5.270;2022-08-21T14:16:19;26.30;61.40
60287;DHT22;46141;52.382;5.270;2022-08-21T14:19:20;26.30;61.70
60287;DHT22;46141;52.382;5.270;2022-08-21T14:21:46;26.30;61.50
60287;DHT22;46141;52.382;5.270;2022-08-21T14:26:56;26.30;61.40
60287;DHT22;46141;52.382;5.270;2022-08-21T14:29:25;26.30;61.80
60287;DHT22;46141;52.382;5.270;2022-08-21T14:31:55;26.20;61.10
60287;DHT22;46141;52.382;5.270;2022-08-21T14:34:23;26.20;61.20
60287;DHT22;46141;52.382;5.270;2022-08-21T14:36:49;26.20;61.10
60287;DHT22;46141;52.382;5.270;2022-08-21T14:39:15;26.20;61.30
60287;DHT22;46141;52.382;5.270;2022-08-21T14:41:41;26.20;61.30
60287;DHT22;46141;52.382;5.270;2022-08-21T14:44:07;26.30;61.30
60287;DHT22;46141;52.382;5.270;2022-08-21T14:46:34;26.30;61.60
60287;DHT22;46141;52.382;5.270;2022-08-21T14:48:59;26.20;61.60
60287;DHT22;46141;52.382;5.270;2022-08-21T14:51:25;26.30;62.60
60287;DHT22;46141;52.382;5.270;2022-08-21T14:53:50;26.30;61.50
60287;DHT22;46141;52.382;5.270;2022-08-21T14:56:16;26.30;61.50
60287;DHT22;46141;52.382;5.270;2022-08-21T14:58:46;26.20;60.80
60287;DHT22;46141;52.382;5.270;2022-08-21T15:01:14;26.20;60.90
60287;DHT22;46141;52.382;5.270;2022-08-21T15:03:41;26.20;60.90
60287;DHT22;46141;52.382;5.270;2022-08-21T15:06:08;26.20;60.90
60287;DHT22;46141;52.382;5.270;2022-08-21T15:08:34;26.20;60.80
60287;DHT22;46141;52.382;5.270;2022-08-21T15:11:01;26.20;61.50
60287;DHT22;46141;52.382;5.270;2022-08-21T15:13:28;26.20;61.10
60287;DHT22;46141;52.382;5.270;2022-08-21T15:15:54;26.20;61.00
60287;DHT22;46141;52.382;5.270;2022-08-21T15:18:22;26.20;61.00
60287;DHT22;46141;52.382;5.270;2022-08-21T15:20:48;26.20;60.80
60287;DHT22;46141;52.382;5.270;2022-08-21T15:23:15;26.20;60.60
60287;DHT22;46141;52.382;5.270;2022-08-21T15:25:44;26.10;60.80
60287;DHT22;46141;52.382;5.270;2022-08-21T15:28:11;26.10;60.90
60287;DHT22;46141;52.382;5.270;2022-08-21T15:30:39;26.10;61.00
60287;DHT22;46141;52.382;5.270;2022-08-21T15:33:05;26.10;61.00
60287;DHT22;46141;52.382;5.270;2022-08-21T15:35:31;26.10;61.40
60287;DHT22;46141;52.382;5.270;2022-08-21T15:37:57;26.10;61.50
60287;DHT22;46141;52.382;5.270;2022-08-21T15:40:23;26.00;61.50
60287;DHT22;46141;52.382;5.270;2022-08-21T15:42:53;26.00;61.80
60287;DHT22;46141;52.382;5.270;2022-08-21T15:45:21;26.00;61.50
60287;DHT22;46141;52.382;5.270;2022-08-21T15:47:49;26.00;61.60
60287;DHT22;46141;52.382;5.270;2022-08-21T15:50:15;26.00;61.60
60287;DHT22;46141;52.382;5.270;2022-08-21T15:52:41;26.00;61.60
60287;DHT22;46141;52.382;5.270;2022-08-21T15:55:07;26.00;61.60
60287;DHT22;46141;52.382;5.270;2022-08-21T15:57:35;26.00;61.40
60287;DHT22;46141;52.382;5.270;2022-08-21T16:00:11;25.90;61.30
60287;DHT22;46141;52.382;5.270;2022-08-21T16:02:40;26.00;61.00
60287;DHT22;46141;52.382;5.270;2022-08-21T16:05:07;25.90;61.00
60287;DHT22;46141;52.382;5.270;2022-08-21T16:07:33;25.90;61.20
60287;DHT22;46141;52.382;5.270;2022-08-21T16:09:58;25.90;61.40
60287;DHT22;46141;52.382;5.270;2022-08-21T16:12:30;25.90;61.40
60287;DHT22;46141;52.382;5.270;2022-08-21T16:14:59;26.00;61.50
60287;DHT22;46141;52.382;5.270;2022-08-21T16:17:31;26.10;61.10
60287;DHT22;46141;52.382;5.270;2022-08-21T16:19:57;26.10;61.10
60287;DHT22;46141;52.382;5.270;2022-08-21T16:22:24;26.10;60.80
60287;DHT22;46141;52.382;5.270;2022-08-21T16:24:50;26.10;60.80
60287;DHT22;46141;52.382;5.270;2022-08-21T16:27:16;26.10;60.80
60287;DHT22;46141;52.382;5.270;2022-08-21T16:29:42;26.10;60.50
60287;DHT22;46141;52.382;5.270;2022-08-21T16:32:07;26.10;60.40
60287;DHT22;46141;52.382;5.270;2022-08-21T16:34:34;26.10;60.40
60287;DHT22;46141;52.382;5.270;2022-08-21T16:37:00;26.10;60.50
60287;DHT22;46141;52.382;5.270;2022-08-21T16:39:26;26.10;60.50
60287;DHT22;46141;52.382;5.270;2022-08-21T16:41:51;26.10;60.30
60287;DHT22;46141;52.382;5.270;2022-08-21T16:44:21;26.20;60.50
60287;DHT22;46141;52.382;5.270;2022-08-21T16:46:47;26.20;60.30
60287;DHT22;46141;52.382;5.270;2022-08-21T16:49:12;26.20;60.50
60287;DHT22;46141;52.382;5.270;2022-08-21T16:51:38;26.20;60.40